sensor_id;sensor_type;location;lat;lon;timestamp;pressure;altitude;pressure_sealevel;temperature;humidity
42111;BME280;27766;52.174;5.456;2023-04-04T00:00:43;103001.50;;;3.02;100.00
42111;BME280;27766;52.174;5.456;2023-04-04T00:03:10;103005.59;;;3.00;100.00
42111;BME280;27766;52.174;5.456;2023-04-04T00:05:37;102996.22;;;3.00;100.00
42111;BME280;27766;52.174;5.456;2023-04-04T00:08:04;102998.16;;;3.03;100.00
42111;BME280;27766;52.174;5.456;2023-04-04T00:10:31;102988.72;;;3.02;100.00
42111;BME280;27766;52.174;5.456;2023-04-04T00:12:59;102989.72;;;3.04;100.00
42111;BME280;27766;52.174;5.456;2023-04-04T00:15:26;102985.25;;;3.01;100.00
42111;BME280;27766;52.174;5.456;2023-04-04T00:17:53;102978.72;;;2.95;100.00
42111;BME280;27766;52.174;5.456;2023-04-04T00:20:20;102970.25;;;2.96;100.00
42111;BME280;27766;52.174;5.456;2023-04-04T00:22:47;102961.84;;;2.87;100.00
42111;BME280;27766;52.174;5.456;2023-04-04T00:25:14;102956.06;;;2.79;100.00
42111;BME280;27766;52.174;5.456;2023-04-04T00:27:42;102966.19;;;2.77;100.00
42111;BME280;27766;52.174;5.456;2023-04-04T00:30:09;102957.09;;;2.71;100.00
42111;BME280;27766;52.174;5.456;2023-04-04T00:32:38;102954.78;;;2.63;100.00
42111;BME280;27766;52.174;5.456;2023-04-04T00:35:05;102956.97;;;2.69;100.00
42111;BME280;27766;52.174;5.456;2023-04-04T00:37:33;102957.47;;;2.65;100.00
42111;BME280;27766;52.174;5.456;2023-04-04T00:40:00;102964.13;;;2.63;100.00
42111;BME280;27766;52.174;5.456;2023-04-04T00:42:27;102975.75;;;2.59;100.00
42111;BME280;27766;52.174;5.456;2023-04-04T00:44:54;102959.28;;;2.56;100.00
42111;BME280;27766;52.174;5.456;2023-04-04T00:47:23;102968.84;;;2.58;100.00
42111;BME280;27766;52.174;5.456;2023-04-04T00:49:52;102960.41;;;2.59;100.00
42111;BME280;27766;52.174;5.456;2023-04-04T00:52:19;102963.63;;;2.57;100.00
42111;BME280;27766;52.174;5.456;2023-04-04T00:54:46;102965.91;;;2.53;100.00
42111;BME280;27766;52.174;5.456;2023-04-04T00:57:13;102964.34;;;2.45;100.00
42111;BME280;27766;52.174;5.456;2023-04-04T00:59:41;102960.75;;;2.43;100.00
42111;BME280;27766;52.174;5.456;2023-04-04T01:02:09;102960.00;;;2.44;100.00
42111;BME280;27766;52.174;5.456;2023-04-04T01:04:36;102966.03;;;2.45;100.00
42111;BME280;27766;52.174;5.456;2023-04-04T01:07:03;102970.22;;;2.44;100.00
42111;BME280;27766;52.174;5.456;2023-04-04T01:09:31;102950.41;;;2.42;100.00
42111;BME280;27766;52.174;5.456;2023-04-04T01:11:59;102959.25;;;2.45;100.00
42111;BME280;27766;52.174;5.456;2023-04-04T01:14:26;102959.25;;;2.45;100.00
42111;BME280;27766;52.174;5.456;2023-04-04T01:16:54;102962.31;;;2.41;100.00
42111;BME280;27766;52.174;5.456;2023-04-04T01:19:29;102960.25;;;2.37;100.00
42111;BME280;27766;52.174;5.456;2023-04-04T01:21:58;102956.66;;;2.35;100.00
42111;BME280;27766;52.174;5.456;2023-04-04T01:24:29;102968.28;;;2.31;100.00
42111;BME280;27766;52.174;5.456;2023-04-04T01:26:58;102962.75;;;2.27;100.00
42111;BME280;27766;52.174;5.456;2023-04-04T01:29:26;102965.44;;;2.18;100.00
42111;BME280;27766;52.174;5.456;2023-04-04T01:32:11;102963.75;;;2.08;100.00
42111;BME280;27766;52.174;5.456;2023-04-04T01:34:49;102961.06;;;2.07;100.00
42111;BME280;27766;52.174;5.456;2023-04-04T01:37:26;102963.13;;;2.11;100.00
42111;BME280;27766;52.174;5.456;2023-04-04T01:40:05;102963.63;;;2.07;100.00
42111;BME280;27766;52.174;5.456;2023-04-04T01:42:35;102960.78;;;2.03;100.00
42111;BME280;27766;52.174;5.456;2023-04-04T01:45:06;102966.38;;;1.99;100.00
42111;BME280;27766;52.174;5.456;2023-04-04T01:47:40;102965.38;;;1.97;100.00
42111;BME280;27766;52.174;5.456;2023-04-04T01:50:09;102968.28;;;1.92;100.00
42111;BME280;27766;52.174;5.456;2023-04-04T01:52:36;102965.19;;;1.85;100.00
42111;BME280;27766;52.174;5.456;2023-04-04T01:55:04;102958.78;;;1.80;100.00
42111;BME280;27766;52.174;5.456;2023-04-04T01:57:32;102965.31;;;1.87;100.00
42111;BME280;27766;52.174;5.456;2023-04-04T01:59:59;102971.06;;;1.84;100.00
42111;BME280;27766;52.174;5.456;2023-04-04T02:02:26;102942.78;;;1.72;100.00
42111;BME280;27766;52.174;5.456;2023-04-04T02:04:53;102953.66;;;1.80;100.00
42111;BME280;27766;52.174;5.456;2023-04-04T02:07:21;102955.56;;;1.72;100.00
42111;BME280;27766;52.174;5.456;2023-04-04T02:09:49;102963.34;;;1.74;100.00
42111;BME280;27766;52.174;5.456;2023-04-04T02:12:16;102953.88;;;1.63;100.00
42111;BME280;27766;52.174;5.456;2023-04-04T02:14:43;102969.31;;;1.64;100.00
42111;BME280;27766;52.174;5.456;2023-04-04T02:17:11;102960.34;;;1.59;100.00
42111;BME280;27766;52.174;5.456;2023-04-04T02:19:38;102978.47;;;1.62;100.00
42111;BME280;27766;52.174;5.456;2023-04-04T02:22:05;102970.56;;;1.59;100.00
42111;BME280;27766;52.174;5.456;2023-04-04T02:24:32;102976.84;;;1.63;100.00
42111;BME280;27766;52.174;5.456;2023-04-04T02:26:59;102979.66;;;1.66;100.00
42111;BME280;27766;52.174;5.456;2023-04-04T02:29:26;102978.00;;;1.66;100.00
42111;BME280;27766;52.174;5.456;2023-04-04T02:31:53;102979.41;;;1.63;100.00
42111;BME280;27766;52.174;5.456;2023-04-04T02:34:21;102972.19;;;1.58;100.00
42111;BME280;27766;52.174;5.456;2023-04-04T02:36:48;102966.56;;;1.52;100.00
42111;BME280;27766;52.174;5.456;2023-04-04T02:39:15;102960.41;;;1.50;100.00
42111;BME280;27766;52.174;5.456;2023-04-04T02:41:42;102952.22;;;1.44;100.00
42111;BME280;27766;52.174;5.456;2023-04-04T02:44:09;102956.09;;;1.49;100.00
42111;BME280;27766;52.174;5.456;2023-04-04T02:46:36;102953.03;;;1.53;100.00
42111;BME280;27766;52.174;5.456;2023-04-04T02:49:04;102930.28;;;1.46;100.00
42111;BME280;27766;52.174;5.456;2023-04-04T02:51:31;102945.47;;;1.45;100.00
42111;BME280;27766;52.174;5.456;2023-04-04T02:53:59;102931.88;;;1.35;100.00
42111;BME280;27766;52.174;5.456;2023-04-04T02:56:26;102920.97;;;1.27;100.00
42111;BME280;27766;52.174;5.456;2023-04-04T02:58:54;102935.31;;;1.36;100.00
42111;BME280;27766;52.174;5.456;2023-04-04T03:01:21;102939.03;;;1.39;100.00
42111;BME280;27766;52.174;5.456;2023-04-04T03:03:48;102935.47;;;1.37;100.00
42111;BME280;27766;52.174;5.456;2023-04-04T03:06:15;102940.97;;;1.42;100.00
42111;BME280;27766;52.174;5.456;2023-04-04T03:08:42;102937.25;;;1.38;100.00
42111;BME280;27766;52.174;5.456;2023-04-04T03:11:09;102947.31;;;1.37;100.00
42111;BME280;27766;52.174;5.456;2023-04-04T03:13:37;102944.31;;;1.41;100.00
42111;BME280;27766;52.174;5.456;2023-04-04T03:16:04;102942.63;;;1.41;100.00
42111;BME280;27766;52.174;5.456;2023-04-04T03:18:34;102945.69;;;1.37;100.00
42111;BME280;27766;52.174;5.456;2023-04-04T03:21:01;102948.09;;;1.36;100.00
42111;BME280;27766;52.174;5.456;2023-04-04T03:23:28;102940.22;;;1.24;100.00
42111;BME280;27766;52.174;5.456;2023-04-04T03:25:56;102933.81;;;1.19;100.00
42111;BME280;27766;52.174;5.456;2023-04-04T03:28:23;102928.06;;;1.11;100.00
42111;BME280;27766;52.174;5.456;2023-04-04T03:30:50;102934.50;;;1.07;100.00
42111;BME280;27766;52.174;5.456;2023-04-04T03:33:17;102930.50;;;1.01;100.00
42111;BME280;27766;52.174;5.456;2023-04-04T03:35:45;102933.31;;;1.04;100.00
42111;BME280;27766;52.174;5.456;2023-04-04T03:38:12;102919.28;;;0.99;100.00
42111;BME280;27766;52.174;5.456;2023-04-04T03:40:39;102928.50;;;1.07;100.00
42111;BME280;27766;52.174;5.456;2023-04-04T03:43:08;102928.81;;;1.10;100.00
42111;BME280;27766;52.174;5.456;2023-04-04T03:45:35;102922.94;;;1.11;100.00
42111;BME280;27766;52.174;5.456;2023-04-04T03:48:03;102929.41;;;1.07;100.00
42111;BME280;27766;52.174;5.456;2023-04-04T03:50:30;102930.19;;;1.06;100.00
42111;BME280;27766;52.174;5.456;2023-04-04T03:52:58;102920.19;;;0.99;100.00
42111;BME280;27766;52.174;5.456;2023-04-04T03:55:25;102926.16;;;1.00;100.00
42111;BME280;27766;52.174;5.456;2023-04-04T03:57:52;102921.69;;;0.97;100.00
42111;BME280;27766;52.174;5.456;2023-04-04T04:00:19;102933.53;;;0.97;100.00
42111;BME280;27766;52.174;5.456;2023-04-04T04:02:49;102931.59;;;0.94;100.00
42111;BME280;27766;52.174;5.456;2023-04-04T04:05:17;102921.47;;;0.85;100.00
42111;BME280;27766;52.174;5.456;2023-04-04T04:07:44;102929.69;;;0.91;100.00
42111;BME280;27766;52.174;5.456;2023-04-04T04:10:11;102924.44;;;0.90;100.00
42111;BME280;27766;52.174;5.456;2023-04-04T04:12:40;102934.34;;;0.87;100.00
42111;BME280;27766;52.174;5.456;2023-04-04T04:15:08;102939.75;;;0.90;100.00
42111;BME280;27766;52.174;5.456;2023-04-04T04:17:41;102944.09;;;0.91;100.00
42111;BME280;27766;52.174;5.456;2023-04-04T04:20:08;102930.31;;;0.89;100.00
42111;BME280;27766;52.174;5.456;2023-04-04T04:22:35;102938.25;;;0.92;100.00
42111;BME280;27766;52.174;5.456;2023-04-04T04:25:04;102938.56;;;0.86;100.00
42111;BME280;27766;52.174;5.456;2023-04-04T04:27:31;102941.31;;;0.79;100.00
42111;BME280;27766;52.174;5.456;2023-04-04T04:29:58;102944.63;;;0.78;100.00
42111;BME280;27766;52.174;5.456;2023-04-04T04:32:25;102932.69;;;0.68;100.00
42111;BME280;27766;52.174;5.456;2023-04-04T04:34:53;102935.69;;;0.64;100.00
42111;BME280;27766;52.174;5.456;2023-04-04T04:37:21;102936.94;;;0.59;100.00
42111;BME280;27766;52.174;5.456;2023-04-04T04:39:48;102939.06;;;0.54;100.00
42111;BME280;27766;52.174;5.456;2023-04-04T04:42:15;102933.41;;;0.48;100.00
42111;BME280;27766;52.174;5.456;2023-04-04T04:44:43;102943.28;;;0.45;100.00
42111;BME280;27766;52.174;5.456;2023-04-04T04:47:10;102935.84;;;0.38;100.00
42111;BME280;27766;52.174;5.456;2023-04-04T04:49:37;102939.13;;;0.37;100.00
42111;BME280;27766;52.174;5.456;2023-04-04T04:52:04;102936.75;;;0.38;100.00
42111;BME280;27766;52.174;5.456;2023-04-04T04:54:31;102946.03;;;0.38;100.00
42111;BME280;27766;52.174;5.456;2023-04-04T04:56:58;102938.50;;;0.39;100.00
42111;BME280;27766;52.174;5.456;2023-04-04T04:59:28;102939.56;;;0.41;100.00
42111;BME280;27766;52.174;5.456;2023-04-04T05:01:55;102948.88;;;0.41;100.00
42111;BME280;27766;52.174;5.456;2023-04-04T05:04:22;102951.69;;;0.44;100.00
42111;BME280;27766;52.174;5.456;2023-04-04T05:06:49;102951.44;;;0.41;100.00
42111;BME280;27766;52.174;5.456;2023-04-04T05:09:17;102950.25;;;0.37;100.00
42111;BME280;27766;52.174;5.456;2023-04-04T05:11:44;102947.53;;;0.36;100.00
42111;BME280;27766;52.174;5.456;2023-04-04T05:14:11;102954.00;;;0.32;100.00
42111;BME280;27766;52.174;5.456;2023-04-04T05:16:38;102948.47;;;0.27;100.00
42111;BME280;27766;52.174;5.456;2023-04-04T05:19:05;102961.50;;;0.30;100.00
42111;BME280;27766;52.174;5.456;2023-04-04T05:21:33;102950.13;;;0.27;100.00
42111;BME280;27766;52.174;5.456;2023-04-04T05:24:00;102955.84;;;0.24;100.00
42111;BME280;27766;52.174;5.456;2023-04-04T05:26:28;102961.69;;;0.23;100.00
42111;BME280;27766;52.174;5.456;2023-04-04T05:28:56;102948.50;;;0.19;100.00
42111;BME280;27766;52.174;5.456;2023-04-04T05:31:25;102944.59;;;0.22;100.00
42111;BME280;27766;52.174;5.456;2023-04-04T05:33:54;102957.44;;;0.33;100.00
42111;BME280;27766;52.174;5.456;2023-04-04T05:36:22;102958.94;;;0.30;100.00
42111;BME280;27766;52.174;5.456;2023-04-04T05:38:49;102950.69;;;0.33;100.00
42111;BME280;27766;52.174;5.456;2023-04-04T05:41:16;102952.19;;;0.40;100.00
42111;BME280;27766;52.174;5.456;2023-04-04T05:43:43;102953.22;;;0.42;100.00
42111;BME280;27766;52.174;5.456;2023-04-04T05:46:10;102960.88;;;0.42;100.00
42111;BME280;27766;52.174;5.456;2023-04-04T05:48:37;102956.78;;;0.44;100.00
42111;BME280;27766;52.174;5.456;2023-04-04T05:51:04;102959.50;;;0.45;100.00
42111;BME280;27766;52.174;5.456;2023-04-04T05:53:32;102960.09;;;0.43;100.00
42111;BME280;27766;52.174;5.456;2023-04-04T05:55:59;102957.22;;;0.49;100.00
42111;BME280;27766;52.174;5.456;2023-04-04T05:58:27;102964.72;;;0.47;100.00
42111;BME280;27766;52.174;5.456;2023-04-04T06:00:55;102955.00;;;0.43;100.00
42111;BME280;27766;52.174;5.456;2023-04-04T06:03:22;102952.13;;;0.49;100.00
42111;BME280;27766;52.174;5.456;2023-04-04T06:05:51;102953.59;;;0.55;100.00
42111;BME280;27766;52.174;5.456;2023-04-04T06:08:18;102962.44;;;0.59;100.00
42111;BME280;27766;52.174;5.456;2023-04-04T06:10:46;102963.13;;;0.67;100.00
42111;BME280;27766;52.174;5.456;2023-04-04T06:13:15;102963.09;;;0.75;100.00
42111;BME280;27766;52.174;5.456;2023-04-04T06:15:43;102958.97;;;0.86;100.00
42111;BME280;27766;52.174;5.456;2023-04-04T06:18:10;102961.88;;;1.00;100.00
42111;BME280;27766;52.174;5.456;2023-04-04T06:20:37;102962.97;;;1.12;100.00
42111;BME280;27766;52.174;5.456;2023-04-04T06:23:05;102962.63;;;1.18;100.00
42111;BME280;27766;52.174;5.456;2023-04-04T06:25:32;102946.06;;;1.42;100.00
42111;BME280;27766;52.174;5.456;2023-04-04T06:27:59;102949.19;;;1.48;100.00
42111;BME280;27766;52.174;5.456;2023-04-04T06:30:26;102962.00;;;1.58;100.00
42111;BME280;27766;52.174;5.456;2023-04-04T06:32:54;102962.19;;;1.70;100.00
42111;BME280;27766;52.174;5.456;2023-04-04T06:35:21;102956.63;;;1.85;100.00
42111;BME280;27766;52.174;5.456;2023-04-04T06:37:53;102959.88;;;1.93;100.00
42111;BME280;27766;52.174;5.456;2023-04-04T06:40:22;102982.69;;;2.10;100.00
42111;BME280;27766;52.174;5.456;2023-04-04T06:42:49;102973.97;;;2.18;100.00
42111;BME280;27766;52.174;5.456;2023-04-04T06:45:18;102969.97;;;2.41;100.00
42111;BME280;27766;52.174;5.456;2023-04-04T06:47:45;102976.25;;;2.55;100.00
42111;BME280;27766;52.174;5.456;2023-04-04T06:50:13;102970.00;;;2.72;100.00
42111;BME280;27766;52.174;5.456;2023-04-04T06:52:40;102977.44;;;2.90;100.00
42111;BME280;27766;52.174;5.456;2023-04-04T06:55:07;102986.13;;;2.92;100.00
42111;BME280;27766;52.174;5.456;2023-04-04T06:57:34;102978.72;;;2.95;100.00
42111;BME280;27766;52.174;5.456;2023-04-04T07:00:02;102977.44;;;3.00;100.00
42111;BME280;27766;52.174;5.456;2023-04-04T07:02:29;102982.78;;;3.03;100.00
42111;BME280;27766;52.174;5.456;2023-04-04T07:04:58;102982.56;;;3.10;100.00
42111;BME280;27766;52.174;5.456;2023-04-04T07:07:25;102975.88;;;3.12;100.00
42111;BME280;27766;52.174;5.456;2023-04-04T07:09:52;102959.28;;;3.17;100.00
42111;BME280;27766;52.174;5.456;2023-04-04T07:12:19;102976.38;;;3.29;100.00
42111;BME280;27766;52.174;5.456;2023-04-04T07:14:47;102974.69;;;3.40;100.00
42111;BME280;27766;52.174;5.456;2023-04-04T07:17:15;102970.44;;;3.51;100.00
42111;BME280;27766;52.174;5.456;2023-04-04T07:19:51;102979.38;;;3.66;100.00
42111;BME280;27766;52.174;5.456;2023-04-04T07:22:18;102966.28;;;3.73;100.00
42111;BME280;27766;52.174;5.456;2023-04-04T07:24:45;102979.66;;;3.91;100.00
42111;BME280;27766;52.174;5.456;2023-04-04T07:27:14;102975.13;;;4.09;100.00
42111;BME280;27766;52.174;5.456;2023-04-04T07:29:41;102971.25;;;4.15;100.00
42111;BME280;27766;52.174;5.456;2023-04-04T07:32:09;102979.09;;;4.28;100.00
42111;BME280;27766;52.174;5.456;2023-04-04T07:34:36;102978.88;;;4.47;100.00
42111;BME280;27766;52.174;5.456;2023-04-04T07:37:03;102981.47;;;4.59;100.00
42111;BME280;27766;52.174;5.456;2023-04-04T07:39:30;102974.19;;;4.75;100.00
42111;BME280;27766;52.174;5.456;2023-04-04T07:41:58;102982.28;;;4.92;100.00
42111;BME280;27766;52.174;5.456;2023-04-04T07:44:25;102982.38;;;4.94;100.00
42111;BME280;27766;52.174;5.456;2023-04-04T07:46:52;102976.91;;;5.01;100.00
42111;BME280;27766;52.174;5.456;2023-04-04T07:49:35;102979.38;;;4.99;100.00
42111;BME280;27766;52.174;5.456;2023-04-04T07:52:02;102982.97;;;5.01;100.00
42111;BME280;27766;52.174;5.456;2023-04-04T07:54:30;102977.59;;;4.98;100.00
42111;BME280;27766;52.174;5.456;2023-04-04T07:56:58;102981.72;;;4.96;100.00
42111;BME280;27766;52.174;5.456;2023-04-04T07:59:25;102981.34;;;4.91;100.00
42111;BME280;27766;52.174;5.456;2023-04-04T08:01:53;102973.63;;;4.80;100.00
42111;BME280;27766;52.174;5.456;2023-04-04T08:04:21;102970.22;;;4.91;100.00
42111;BME280;27766;52.174;5.456;2023-04-04T08:06:48;102974.72;;;5.05;100.00
42111;BME280;27766;52.174;5.456;2023-04-04T08:09:15;102967.78;;;5.04;99.00
42111;BME280;27766;52.174;5.456;2023-04-04T08:11:42;102972.38;;;5.09;100.00
42111;BME280;27766;52.174;5.456;2023-04-04T08:14:09;102963.34;;;5.14;100.00
42111;BME280;27766;52.174;5.456;2023-04-04T08:16:39;102962.91;;;5.19;100.00
42111;BME280;27766;52.174;5.456;2023-04-04T08:19:06;102968.91;;;5.20;94.95
42111;BME280;27766;52.174;5.456;2023-04-04T08:21:34;102958.91;;;5.35;97.01
42111;BME280;27766;52.174;5.456;2023-04-04T08:24:01;102968.16;;;5.45;93.40
42111;BME280;27766;52.174;5.456;2023-04-04T08:26:28;102963.91;;;5.57;94.23
42111;BME280;27766;52.174;5.456;2023-04-04T08:28:56;102956.97;;;5.68;90.28
42111;BME280;27766;52.174;5.456;2023-04-04T08:31:24;102964.91;;;5.83;92.89
42111;BME280;27766;52.174;5.456;2023-04-04T08:33:51;102956.88;;;5.66;87.38
42111;BME280;27766;52.174;5.456;2023-04-04T08:36:18;102956.88;;;5.66;87.93
42111;BME280;27766;52.174;5.456;2023-04-04T08:38:45;102966.28;;;5.66;72.52
42111;BME280;27766;52.174;5.456;2023-04-04T08:41:14;102960.22;;;5.65;67.50
42111;BME280;27766;52.174;5.456;2023-04-04T08:43:42;102960.03;;;5.38;65.64
42111;BME280;27766;52.174;5.456;2023-04-04T08:46:13;102949.75;;;5.50;71.57
42111;BME280;27766;52.174;5.456;2023-04-04T08:48:43;102950.25;;;5.82;64.43
42111;BME280;27766;52.174;5.456;2023-04-04T08:51:12;102955.50;;;5.83;58.45
42111;BME280;27766;52.174;5.456;2023-04-04T08:53:39;102945.69;;;5.90;57.63
42111;BME280;27766;52.174;5.456;2023-04-04T08:56:07;102950.25;;;6.06;60.13
42111;BME280;27766;52.174;5.456;2023-04-04T08:58:34;102945.22;;;6.32;58.54
42111;BME280;27766;52.174;5.456;2023-04-04T09:01:05;102938.19;;;6.55;60.64
42111;BME280;27766;52.174;5.456;2023-04-04T09:03:33;102938.50;;;6.60;56.58
42111;BME280;27766;52.174;5.456;2023-04-04T09:06:01;102944.59;;;6.74;58.21
42111;BME280;27766;52.174;5.456;2023-04-04T09:08:30;102934.16;;;6.84;58.39
42111;BME280;27766;52.174;5.456;2023-04-04T09:11:02;102944.38;;;7.09;57.43
42111;BME280;27766;52.174;5.456;2023-04-04T09:13:29;102948.66;;;7.22;55.36
42111;BME280;27766;52.174;5.456;2023-04-04T09:15:58;102942.59;;;7.08;55.07
42111;BME280;27766;52.174;5.456;2023-04-04T09:18:28;102949.44;;;7.21;53.99
42111;BME280;27766;52.174;5.456;2023-04-04T09:20:55;102955.31;;;7.19;54.40
42111;BME280;27766;52.174;5.456;2023-04-04T09:23:22;102953.75;;;6.95;53.62
42111;BME280;27766;52.174;5.456;2023-04-04T09:25:54;102946.75;;;7.06;54.26
42111;BME280;27766;52.174;5.456;2023-04-04T09:28:32;102938.75;;;7.15;54.46
42111;BME280;27766;52.174;5.456;2023-04-04T09:31:02;102949.06;;;7.15;53.60
42111;BME280;27766;52.174;5.456;2023-04-04T09:33:31;102937.97;;;7.16;55.06
42111;BME280;27766;52.174;5.456;2023-04-04T09:36:07;102939.34;;;7.24;53.47
42111;BME280;27766;52.174;5.456;2023-04-04T09:38:39;102925.44;;;7.09;52.99
42111;BME280;27766;52.174;5.456;2023-04-04T09:41:12;102936.66;;;7.09;53.90
42111;BME280;27766;52.174;5.456;2023-04-04T09:43:43;102934.56;;;7.04;53.87
42111;BME280;27766;52.174;5.456;2023-04-04T09:46:10;102933.00;;;7.19;55.59
42111;BME280;27766;52.174;5.456;2023-04-04T09:48:38;102925.66;;;7.12;53.10
42111;BME280;27766;52.174;5.456;2023-04-04T09:51:06;102927.16;;;7.08;52.65
42111;BME280;27766;52.174;5.456;2023-04-04T09:53:34;102928.22;;;6.99;52.22
42111;BME280;27766;52.174;5.456;2023-04-04T09:56:03;102916.06;;;7.09;52.40
42111;BME280;27766;52.174;5.456;2023-04-04T09:58:31;102910.50;;;7.03;52.24
42111;BME280;27766;52.174;5.456;2023-04-04T10:01:06;102915.56;;;7.15;53.80
42111;BME280;27766;52.174;5.456;2023-04-04T10:03:36;102927.06;;;7.34;53.22
42111;BME280;27766;52.174;5.456;2023-04-04T10:06:07;102921.50;;;7.41;53.84
42111;BME280;27766;52.174;5.456;2023-04-04T10:08:39;102917.03;;;7.65;52.09
42111;BME280;27766;52.174;5.456;2023-04-04T10:11:07;102920.88;;;7.85;51.52
42111;BME280;27766;52.174;5.456;2023-04-04T10:13:39;102925.50;;;8.04;50.31
42111;BME280;27766;52.174;5.456;2023-04-04T10:16:08;102920.16;;;8.16;49.25
42111;BME280;27766;52.174;5.456;2023-04-04T10:18:37;102920.16;;;8.16;50.05
42111;BME280;27766;52.174;5.456;2023-04-04T10:21:06;102917.19;;;8.23;49.22
42111;BME280;27766;52.174;5.456;2023-04-04T10:23:40;102907.31;;;8.31;48.44
42111;BME280;27766;52.174;5.456;2023-04-04T10:26:08;102893.53;;;8.31;48.45
42111;BME280;27766;52.174;5.456;2023-04-04T10:28:35;102887.97;;;8.24;47.82
42111;BME280;27766;52.174;5.456;2023-04-04T10:34:09;102892.78;;;8.18;48.88
42111;BME280;27766;52.174;5.456;2023-04-04T10:36:43;102889.59;;;8.22;48.28
42111;BME280;27766;52.174;5.456;2023-04-04T10:39:25;102890.13;;;8.32;48.01
42111;BME280;27766;52.174;5.456;2023-04-04T10:41:54;102876.34;;;8.31;49.09
42111;BME280;27766;52.174;5.456;2023-04-04T10:44:29;102884.00;;;8.30;47.64
42111;BME280;27766;52.174;5.456;2023-04-04T10:47:14;102885.84;;;8.17;47.46
42111;BME280;27766;52.174;5.456;2023-04-04T10:49:43;102879.88;;;8.18;48.23
42111;BME280;27766;52.174;5.456;2023-04-04T10:52:19;102864.31;;;8.17;48.32
42111;BME280;27766;52.174;5.456;2023-04-04T10:54:53;102883.38;;;8.34;47.93
42111;BME280;27766;52.174;5.456;2023-04-04T10:57:20;102881.44;;;8.30;47.19
42111;BME280;27766;52.174;5.456;2023-04-04T10:59:56;102863.03;;;8.10;47.71
42111;BME280;27766;52.174;5.456;2023-04-04T11:05:19;102860.94;;;8.18;46.20
42111;BME280;27766;52.174;5.456;2023-04-04T11:07:53;102868.97;;;8.22;47.38
42111;BME280;27766;52.174;5.456;2023-04-04T11:10:41;102865.41;;;8.20;48.78
42111;BME280;27766;52.174;5.456;2023-04-04T11:13:13;102867.06;;;8.20;48.39
42111;BME280;27766;52.174;5.456;2023-04-04T11:21:15;102861.88;;;8.33;48.15
42111;BME280;27766;52.174;5.456;2023-04-04T11:29:05;102839.75;;;8.52;49.87
42111;BME280;27766;52.174;5.456;2023-04-04T11:31:42;102838.06;;;8.52;48.67
42111;BME280;27766;52.174;5.456;2023-04-04T11:34:12;102846.50;;;8.65;48.56
42111;BME280;27766;52.174;5.456;2023-04-04T11:44:20;102835.09;;;8.91;46.59
42111;BME280;27766;52.174;5.456;2023-04-04T11:46:54;102839.34;;;9.06;45.91
42111;BME280;27766;52.174;5.456;2023-04-04T11:49:26;102836.59;;;9.02;46.73
42111;BME280;27766;52.174;5.456;2023-04-04T11:51:55;102826.63;;;9.09;47.29
42111;BME280;27766;52.174;5.456;2023-04-04T11:54:23;102826.88;;;9.13;46.39
42111;BME280;27766;52.174;5.456;2023-04-04T11:56:50;102828.19;;;9.22;46.42
42111;BME280;27766;52.174;5.456;2023-04-04T11:59:19;102824.09;;;9.10;47.12
42111;BME280;27766;52.174;5.456;2023-04-04T12:01:47;102826.94;;;9.15;45.90
42111;BME280;27766;52.174;5.456;2023-04-04T12:04:19;102816.22;;;9.24;46.84
42111;BME280;27766;52.174;5.456;2023-04-04T12:06:51;102821.06;;;9.17;45.33
42111;BME280;27766;52.174;5.456;2023-04-04T12:09:19;102809.31;;;9.23;45.68
42111;BME280;27766;52.174;5.456;2023-04-04T12:11:46;102807.19;;;9.15;45.33
42111;BME280;27766;52.174;5.456;2023-04-04T12:14:15;102797.34;;;9.25;45.98
42111;BME280;27766;52.174;5.456;2023-04-04T12:16:44;102807.84;;;8.96;45.91
42111;BME280;27766;52.174;5.456;2023-04-04T12:19:13;102796.66;;;9.12;46.25
42111;BME280;27766;52.174;5.456;2023-04-04T12:21:40;102794.28;;;9.15;45.71
42111;BME280;27766;52.174;5.456;2023-04-04T12:24:08;102786.53;;;9.15;46.78
42111;BME280;27766;52.174;5.456;2023-04-04T12:26:37;102773.13;;;9.23;46.97
42111;BME280;27766;52.174;5.456;2023-04-04T12:29:06;102780.25;;;9.43;47.66
42111;BME280;27766;52.174;5.456;2023-04-04T12:31:35;102778.00;;;9.49;47.03
42111;BME280;27766;52.174;5.456;2023-04-04T12:34:03;102782.06;;;9.61;47.09
42111;BME280;27766;52.174;5.456;2023-04-04T12:36:31;102770.25;;;9.66;47.19
42111;BME280;27766;52.174;5.456;2023-04-04T12:38:59;102775.97;;;9.93;47.18
42111;BME280;27766;52.174;5.456;2023-04-04T12:41:31;102768.22;;;9.93;45.38
42111;BME280;27766;52.174;5.456;2023-04-04T12:44:00;102760.31;;;10.08;45.75
42111;BME280;27766;52.174;5.456;2023-04-04T12:46:38;102767.19;;;10.24;44.58
42111;BME280;27766;52.174;5.456;2023-04-04T12:49:06;102763.13;;;10.29;45.50
42111;BME280;27766;52.174;5.456;2023-04-04T12:51:35;102765.75;;;10.48;45.03
42111;BME280;27766;52.174;5.456;2023-04-04T12:54:05;102767.88;;;10.38;44.85
42111;BME280;27766;52.174;5.456;2023-04-04T12:56:34;102762.06;;;10.60;44.87
42111;BME280;27766;52.174;5.456;2023-04-04T12:59:03;102758.97;;;10.68;44.76
42111;BME280;27766;52.174;5.456;2023-04-04T13:01:31;102753.47;;;10.80;44.88
42111;BME280;27766;52.174;5.456;2023-04-04T13:04:01;102746.00;;;10.86;45.09
42111;BME280;27766;52.174;5.456;2023-04-04T13:06:31;102736.44;;;11.03;44.20
42111;BME280;27766;52.174;5.456;2023-04-04T13:08:59;102736.06;;;11.33;43.35
42111;BME280;27766;52.174;5.456;2023-04-04T13:11:59;102737.34;;;11.23;44.23
42111;BME280;27766;52.174;5.456;2023-04-04T13:14:57;102725.81;;;10.79;44.70
42111;BME280;27766;52.174;5.456;2023-04-04T13:17:46;102728.34;;;10.77;45.17
42111;BME280;27766;52.174;5.456;2023-04-04T13:20:16;102725.13;;;11.01;43.95
42111;BME280;27766;52.174;5.456;2023-04-04T13:22:44;102723.50;;;11.22;43.26
42111;BME280;27766;52.174;5.456;2023-04-04T13:25:11;102721.94;;;11.26;43.26